Time;durP1;ratioP1;P1;durP2;ratioP2;P2;SDS_P1;SDS_P2;PMS_P1;PMS_P2;Temp;Humidity;BMP_temperature;BMP_pressure;BME280_temperature;BME280_humidity;BME280_pressure;Samples;Min_cycle;Max_cycle;Signal;HPM_P1;HPM_P2
2022/12/21 00:01:16;;;;;;;36.35;19.25;;;;;;;8.24;100.00;101122.53;6223409;22;20067;-77
2022/12/21 00:03:44;;;;;;;27.25;17.45;;;;;;;8.23;100.00;101128.25;6249493;22;20040;-77
2022/12/21 00:06:11;;;;;;;30.15;18.17;;;;;;;8.22;100.00;101106.28;6249564;22;20443;-76
2022/12/21 00:08:42;;;;;;;31.90;18.48;;;;;;;8.21;100.00;101118.03;6249101;22;20017;-77
2022/12/21 00:11:10;;;;;;;30.20;18.05;;;;;;;8.18;100.00;101108.25;6249929;22;20047;-77
2022/12/21 00:13:37;;;;;;;30.65;18.75;;;;;;;8.18;100.00;101104.88;6249486;22;20013;-77
2022/12/21 00:16:06;;;;;;;33.15;18.95;;;;;;;8.15;100.00;101106.44;6249814;22;20021;-77
2022/12/21 00:18:35;;;;;;;36.13;18.08;;;;;;;8.13;100.00;101115.97;6249295;22;20357;-77
2022/12/21 00:21:08;;;;;;;38.47;19.85;;;;;;;8.12;100.00;101111.81;6222317;22;20413;-76
2022/12/21 00:23:36;;;;;;;34.15;19.05;;;;;;;8.06;100.00;101108.91;6249143;22;20017;-76
2022/12/21 00:26:04;;;;;;;34.70;18.98;;;;;;;8.02;100.00;101105.59;6249325;22;20075;-76
2022/12/21 00:28:31;;;;;;;31.27;18.50;;;;;;;7.98;100.00;101111.00;6222040;22;20017;-76
2022/12/21 00:31:13;;;;;;;28.38;17.40;;;;;;;7.94;100.00;101110.31;6249559;22;20074;-76
2022/12/21 00:33:41;;;;;;;27.92;17.95;;;;;;;7.92;100.00;101109.22;6249326;22;20438;-76
2022/12/21 00:36:10;;;;;;;30.30;18.48;;;;;;;7.93;100.00;101118.69;6249565;22;20021;-77
2022/12/21 00:38:37;;;;;;;29.30;17.30;;;;;;;7.94;100.00;101114.88;6221066;22;20473;-76
2022/12/21 00:41:06;;;;;;;34.60;18.45;;;;;;;7.93;100.00;101118.69;6249025;22;20433;-76
2022/12/21 00:43:35;;;;;;;29.85;17.77;;;;;;;7.93;100.00;101123.97;6221578;22;20911;-76
2022/12/21 00:46:03;;;;;;;32.33;17.85;;;;;;;7.90;100.00;101130.84;6249076;22;20020;-76
2022/12/21 00:48:31;;;;;;;31.38;16.85;;;;;;;7.87;100.00;101136.22;6248933;22;20455;-76
2022/12/21 00:51:10;;;;;;;32.60;18.35;;;;;;;7.87;100.00;101121.06;6221938;22;20016;-76
2022/12/21 00:53:36;;;;;;;31.92;17.27;;;;;;;7.85;100.00;101119.97;6248456;22;20009;-76
2022/12/21 00:56:05;;;;;;;30.83;18.60;;;;;;;7.85;100.00;101110.13;6248924;22;20017;-76
2022/12/21 00:58:33;;;;;;;32.35;17.52;;;;;;;7.85;100.00;101120.72;6196625;22;20090;-76
2022/12/21 01:01:04;;;;;;;32.13;17.70;;;;;;;7.85;100.00;101109.38;6248834;22;20033;-76
2022/12/21 01:03:31;;;;;;;35.10;18.27;;;;;;;7.82;100.00;101120.81;6248914;22;20036;-76
2022/12/21 01:05:58;;;;;;;31.42;17.90;;;;;;;7.80;100.00;101112.50;6221197;22;20024;-76
2022/12/21 01:08:25;;;;;;;33.78;18.55;;;;;;;7.75;100.00;101110.34;6221198;22;20047;-76
2022/12/21 01:10:57;;;;;;;32.55;17.85;;;;;;;7.69;100.00;101125.97;6249729;22;20462;-76
2022/12/21 01:13:24;;;;;;;29.48;16.65;;;;;;;7.61;100.00;101109.47;6223347;22;20450;-76
2022/12/21 01:15:52;;;;;;;29.70;17.58;;;;;;;7.58;100.00;101117.50;6248577;22;20025;-76
2022/12/21 01:18:20;;;;;;;29.65;17.67;;;;;;;7.55;100.00;101121.72;6223171;22;20027;-76
2022/12/21 01:20:49;;;;;;;30.52;17.02;;;;;;;7.53;100.00;101124.03;6223197;22;20017;-76
2022/12/21 01:23:17;;;;;;;31.83;18.02;;;;;;;7.53;100.00;101120.63;6222317;22;20024;-76
2022/12/21 01:25:45;;;;;;;33.15;17.83;;;;;;;7.52;100.00;101127.84;6222996;22;20056;-76
2022/12/21 01:28:13;;;;;;;33.58;17.88;;;;;;;7.51;100.00;101121.03;6250508;22;20083;-77
2022/12/21 01:30:40;;;;;;;29.63;18.40;;;;;;;7.51;100.00;101123.69;6250297;22;20068;-77
2022/12/21 01:33:15;;;;;;;24.38;16.60;;;;;;;7.51;100.00;101129.00;6198268;22;20017;-77
2022/12/21 01:35:43;;;;;;;31.38;17.38;;;;;;;7.48;100.00;101135.09;6223144;22;20025;-77
2022/12/21 01:38:11;;;;;;;36.63;16.55;;;;;;;7.48;100.00;101135.09;6198422;22;20016;-77
2022/12/21 01:40:38;;;;;;;35.08;17.55;;;;;;;7.49;100.00;101133.19;6249943;22;20076;-77
2022/12/21 01:43:37;;;;;;;31.77;16.70;;;;;;;7.46;100.00;101134.75;6250131;22;20013;-77
2022/12/21 01:46:08;;;;;;;30.92;15.93;;;;;;;7.43;100.00;101140.88;6223827;22;20028;-76
2022/12/21 01:48:40;;;;;;;30.38;15.73;;;;;;;7.42;100.00;101144.69;6223186;22;20035;-76
2022/12/21 01:51:10;;;;;;;35.42;16.55;;;;;;;7.39;100.00;101145.50;6250121;22;20017;-76
2022/12/21 01:53:47;;;;;;;27.33;15.55;;;;;;;7.38;100.00;101135.31;6250340;22;20023;-76
2022/12/21 01:56:18;;;;;;;39.22;15.55;;;;;;;7.36;100.00;101141.75;6248509;22;20027;-76
2022/12/21 01:58:45;;;;;;;36.45;16.35;;;;;;;7.35;100.00;101137.59;6223253;22;20482;-76
2022/12/21 02:01:11;;;;;;;26.42;15.55;;;;;;;7.37;100.00;101142.50;6250569;22;20016;-76
2022/12/21 02:03:43;;;;;;;28.52;14.93;;;;;;;7.36;100.00;101143.66;6250007;22;20013;-76
2022/12/21 02:06:20;;;;;;;25.92;15.23;;;;;;;7.33;100.00;101142.56;6249843;22;20031;-76
2022/12/21 02:08:48;;;;;;;28.95;15.13;;;;;;;7.33;100.00;101142.56;6250201;22;20079;-76
2022/12/21 02:11:15;;;;;;;25.40;14.80;;;;;;;7.35;100.00;101145.56;6221031;22;20016;-76
2022/12/21 02:13:42;;;;;;;25.42;14.93;;;;;;;7.34;100.00;101138.00;6248309;22;20017;-76
2022/12/21 02:16:20;;;;;;;29.90;14.93;;;;;;;7.31;100.00;101136.19;6249961;22;20020;-76
2022/12/21 02:19:18;;;;;;;24.45;14.30;;;;;;;7.32;100.00;101137.66;6249615;22;20013;-76
2022/12/21 02:21:54;;;;;;;21.08;13.48;;;;;;;7.35;100.00;101134.97;6248738;22;20071;-76
2022/12/21 02:24:40;;;;;;;24.60;13.70;;;;;;;7.33;100.00;101137.25;6250124;22;20506;-76
2022/12/21 02:27:43;;;;;;;26.10;13.48;;;;;;;7.33;100.00;101133.88;6223417;22;20029;-76
2022/12/21 02:30:17;;;;;;;26.58;12.65;;;;;;;7.33;100.00;101121.38;6250510;22;20079;-77
2022/12/21 02:33:03;;;;;;;22.75;13.38;;;;;;;7.35;100.00;101116.41;6222952;22;20454;-76
2022/12/21 02:35:50;;;;;;;25.80;12.65;;;;;;;7.36;100.00;101115.25;6222308;22;20438;-76
2022/12/21 02:38:29;;;;;;;24.05;13.75;;;;;;;7.38;100.00;101122.81;6223352;22;20021;-76
2022/12/21 02:41:09;;;;;;;23.35;13.38;;;;;;;7.36;100.00;101123.22;6222867;22;20024;-76
2022/12/21 02:46:56;;;;;;;26.55;13.40;;;;;;;7.33;100.00;101112.69;6222636;22;20492;-76
2022/12/21 02:49:38;;;;;;;29.30;13.98;;;;;;;7.34;100.00;101117.56;6249418;22;20021;-77
2022/12/21 02:52:17;;;;;;;20.77;12.93;;;;;;;7.34;100.00;101114.94;6250342;22;20013;-76
2022/12/21 02:54:44;;;;;;;22.17;13.15;;;;;;;7.34;100.00;101117.56;6222691;22;20090;-76
2022/12/21 02:57:11;;;;;;;28.17;13.75;;;;;;;7.33;100.00;101120.63;6250068;22;20430;-76
2022/12/21 02:59:46;;;;;;;28.23;14.88;;;;;;;7.30;100.00;101108.19;6222264;22;20458;-76
2022/12/21 03:02:44;;;;;;;23.30;13.43;;;;;;;7.31;100.00;101115.75;6250250;22;20036;-76
2022/12/21 03:05:56;;;;;;;24.10;13.40;;;;;;;7.28;100.00;101105.97;6222811;22;20017;-76
2022/12/21 03:08:48;;;;;;;22.05;12.98;;;;;;;7.25;100.00;101104.13;6222855;22;20346;-76
2022/12/21 03:11:16;;;;;;;24.10;13.32;;;;;;;7.24;100.00;101115.13;6222492;22;20466;-75
2022/12/21 03:14:03;;;;;;;22.95;14.35;;;;;;;7.25;100.00;101116.63;6222640;22;20020;-78
2022/12/21 03:16:44;;;;;;;26.50;13.98;;;;;;;7.24;100.00;101112.47;6222859;22;20040;-75
2022/12/21 03:19:23;;;;;;;29.40;14.63;;;;;;;7.22;100.00;101106.84;6222435;22;20096;-78
2022/12/21 03:22:01;;;;;;;29.80;15.02;;;;;;;7.21;100.00;101110.63;6222688;22;20094;-78
2022/12/21 03:24:36;;;;;;;27.20;14.10;;;;;;;7.20;100.00;101103.84;6222950;22;20546;-77
2022/12/21 03:27:08;;;;;;;20.55;13.32;;;;;;;7.21;100.00;101115.94;6250119;22;20020;-76
2022/12/21 03:29:41;;;;;;;23.17;14.70;;;;;;;7.20;100.00;101114.44;6249909;22;20013;-75
2022/12/21 03:32:19;;;;;;;29.48;14.18;;;;;;;7.19;100.00;101107.66;6222320;22;20021;-75
2022/12/21 03:34:51;;;;;;;28.25;14.98;;;;;;;7.15;100.00;101107.75;6249613;22;20084;-75
2022/12/21 03:37:22;;;;;;;28.58;14.82;;;;;;;7.13;100.00;101104.75;6249429;22;20024;-76
2022/12/21 03:40:00;;;;;;;28.25;16.00;;;;;;;7.12;100.00;101108.53;6249458;22;20074;-76
2022/12/21 03:42:35;;;;;;;25.98;14.68;;;;;;;7.10;100.00;101102.16;6249672;22;20021;-76
2022/12/21 03:45:09;;;;;;;24.98;14.68;;;;;;;7.09;100.00;101101.41;6249857;22;20071;-76
2022/12/21 03:47:41;;;;;;;26.80;14.98;;;;;;;7.07;100.00;101100.31;6247532;22;20071;-75
2022/12/21 03:50:16;;;;;;;26.10;13.80;;;;;;;7.09;100.00;101106.72;6250088;22;20108;-76
2022/12/21 03:52:50;;;;;;;23.27;14.32;;;;;;;7.08;100.00;101102.56;6249611;22;20049;-76
2022/12/21 03:55:36;;;;;;;24.27;15.00;;;;;;;7.08;100.00;101093.88;6223042;22;20339;-76
2022/12/21 03:58:04;;;;;;;30.58;15.30;;;;;;;7.09;100.00;101090.06;6222886;22;20016;-76
2022/12/21 04:00:42;;;;;;;28.95;14.73;;;;;;;7.10;100.00;101094.97;6249235;22;20017;-75
2022/12/21 04:03:17;;;;;;;25.85;14.88;;;;;;;7.10;100.00;101094.22;6250035;22;20016;-76
2022/12/21 04:05:54;;;;;;;31.33;14.93;;;;;;;7.08;100.00;101093.88;6249517;22;20055;-76
2022/12/21 04:08:22;;;;;;;27.55;15.43;;;;;;;7.09;100.00;101103.31;6249278;22;20009;-76
2022/12/21 04:10:49;;;;;;;29.45;15.60;;;;;;;7.06;100.00;101102.22;6249405;22;20469;-76
2022/12/21 04:13:16;;;;;;;29.05;15.60;;;;;;;7.06;100.00;101102.22;6249409;22;20075;-75
2022/12/21 04:21:12;;;;;;;28.55;15.70;;;;;;;7.01;100.00;101087.56;6249639;22;20509;-76
2022/12/21 04:29:09;;;;;;;29.00;15.00;;;;;;;6.99;100.00;101079.28;6249978;22;20071;-76
2022/12/21 04:31:36;;;;;;;31.17;16.70;;;;;;;6.98;100.00;101075.13;6221903;22;20016;-75
2022/12/21 04:34:02;;;;;;;31.77;16.63;;;;;;;6.96;100.00;101076.69;6249282;22;20426;-76
2022/12/21 04:39:14;;;;;;;27.92;15.55;;;;;;;6.94;100.00;101069.16;6248654;22;20446;-76
2022/12/21 04:41:40;;;;;;;31.73;16.42;;;;;;;6.94;100.00;101079.75;6249179;22;20417;-75
2022/12/21 04:44:07;;;;;;;29.83;16.25;;;;;;;6.95;100.00;101075.94;6222712;22;20431;-76
2022/12/21 04:46:33;;;;;;;35.08;17.13;;;;;;;6.96;100.00;101077.44;6249959;22;20504;-76
2022/12/21 04:49:00;;;;;;;31.17;16.95;;;;;;;6.96;100.00;101088.03;6250467;22;20418;-75
2022/12/21 04:51:26;;;;;;;41.97;17.95;;;;;;;6.98;100.00;101091.00;6250346;22;20024;-75
2022/12/21 04:53:53;;;;;;;37.75;19.10;;;;;;;6.99;100.00;101091.75;6250317;22;20048;-75
2022/12/21 04:56:20;;;;;;;40.88;18.40;;;;;;;7.00;100.00;101091.34;6250378;22;20343;-76
2022/12/21 04:58:47;;;;;;;41.75;18.23;;;;;;;7.00;100.00;101091.34;6249768;22;20017;-76
2022/12/21 05:01:19;;;;;;;39.80;18.45;;;;;;;7.01;100.00;101095.50;6223745;22;20019;-76
2022/12/21 05:03:47;;;;;;;41.95;18.42;;;;;;;7.01;100.00;101094.75;6250299;22;20119;-76
2022/12/21 05:06:15;;;;;;;43.67;20.30;;;;;;;7.02;100.00;101091.69;6250417;22;20016;-76
2022/12/21 05:08:42;;;;;;;39.70;19.70;;;;;;;7.03;100.00;101085.25;6249844;22;20017;-76
2022/12/21 05:11:21;;;;;;;40.70;19.30;;;;;;;7.02;100.00;101089.06;6250614;22;20485;-76
2022/12/21 05:13:49;;;;;;;41.80;18.08;;;;;;;7.01;100.00;101090.19;6249878;22;20017;-76
2022/12/21 05:16:21;;;;;;;41.15;19.25;;;;;;;7.04;100.00;101088.66;6250348;22;20013;-76
2022/12/21 05:18:48;;;;;;;42.42;19.50;;;;;;;7.03;100.00;101087.16;6250253;22;20343;-76
2022/12/21 05:21:16;;;;;;;43.28;19.67;;;;;;;7.02;100.00;101083.75;6250228;22;20039;-76
2022/12/21 05:23:43;;;;;;;53.97;19.30;;;;;;;7.02;100.00;101085.66;6223428;22;20052;-76
2022/12/21 05:26:10;;;;;;;43.83;18.52;;;;;;;7.02;100.00;101080.34;6250663;22;20461;-76
2022/12/21 05:28:43;;;;;;;46.13;18.92;;;;;;;7.01;100.00;101082.25;6249789;22;20024;-76
2022/12/21 05:31:10;;;;;;;45.22;19.52;;;;;;;7.02;100.00;101075.06;6224004;22;20091;-77
2022/12/21 05:33:37;;;;;;;83.55;19.08;;;;;;;7.02;100.00;101073.16;6250068;22;20020;-77
2022/12/21 05:36:06;;;;;;;47.25;19.33;;;;;;;7.02;100.00;101075.81;6250769;22;20020;-77
2022/12/21 05:38:33;;;;;;;61.72;19.00;;;;;;;7.02;100.00;101073.16;6223566;22;20073;-77
2022/12/21 05:40:59;;;;;;;90.70;19.73;;;;;;;7.03;100.00;101071.25;6249583;22;20121;-77
2022/12/21 05:43:26;;;;;;;93.03;20.45;;;;;;;7.05;100.00;101073.50;6249514;22;20016;-77
2022/12/21 05:45:53;;;;;;;56.80;20.40;;;;;;;7.02;100.00;101070.50;6250114;22;20023;-77
2022/12/21 05:48:20;;;;;;;86.07;19.95;;;;;;;7.05;100.00;101074.25;6223360;22;20447;-75
2022/12/21 05:50:46;;;;;;;60.95;20.48;;;;;;;7.06;100.00;101069.72;6249773;22;20017;-75
2022/12/21 05:53:13;;;;;;;82.72;19.88;;;;;;;7.05;100.00;101063.66;6223227;22;20463;-76
2022/12/21 05:58:27;;;;;;;62.42;19.67;;;;;;;7.05;100.00;101068.97;6249634;22;20079;-77
2022/12/21 06:00:54;;;;;;;107.60;21.05;;;;;;;7.05;100.00;101073.50;6250222;22;20087;-75
2022/12/21 06:03:21;;;;;;;84.18;20.10;;;;;;;7.05;100.00;101068.22;6223194;22;20027;-76
2022/12/21 06:05:47;;;;;;;53.17;19.90;;;;;;;7.06;100.00;101072.34;6249986;22;20403;-76
2022/12/21 06:08:14;;;;;;;39.67;19.77;;;;;;;7.07;100.00;101066.66;6250168;22;20387;-76
2022/12/21 06:10:40;;;;;;;39.35;19.25;;;;;;;7.08;100.00;101062.84;6249716;22;20021;-75
2022/12/21 06:13:07;;;;;;;38.03;20.25;;;;;;;7.09;100.00;101067.00;6249717;22;20028;-75
2022/12/21 06:15:33;;;;;;;39.92;20.00;;;;;;;7.09;100.00;101066.25;6250259;22;20016;-76
2022/12/21 06:18:02;;;;;;;47.25;20.75;;;;;;;7.10;100.00;101068.50;6223018;22;20020;-77
2022/12/21 06:20:32;;;;;;;46.75;19.77;;;;;;;7.11;100.00;101062.03;6222376;22;20075;-75
2022/12/21 06:22:58;;;;;;;39.92;18.70;;;;;;;7.14;100.00;101060.47;6249890;22;20020;-78
2022/12/21 06:25:24;;;;;;;45.90;21.40;;;;;;;7.14;100.00;101068.44;6250063;22;20459;-76
2022/12/21 06:27:51;;;;;;;65.05;21.20;;;;;;;7.16;100.00;101079.34;6249204;22;20027;-78
2022/12/21 06:30:18;;;;;;;47.78;22.02;;;;;;;7.16;100.00;101074.06;6249965;22;20017;-76
2022/12/21 06:32:44;;;;;;;54.75;21.60;;;;;;;7.15;100.00;101078.63;6248274;22;20028;-76
2022/12/21 06:35:11;;;;;;;62.58;21.35;;;;;;;7.16;100.00;101072.16;6250491;22;20075;-76
2022/12/21 06:37:37;;;;;;;42.38;21.60;;;;;;;7.16;100.00;101074.81;6249821;22;20017;-76
2022/12/21 06:40:04;;;;;;;44.90;21.52;;;;;;;7.16;100.00;101076.72;6249941;22;20012;-76
2022/12/21 06:42:31;;;;;;;47.13;21.48;;;;;;;7.16;100.00;101082.75;6249459;22;20454;-76
2022/12/21 06:44:57;;;;;;;48.97;21.58;;;;;;;7.17;100.00;101080.84;6249988;22;20099;-76
2022/12/21 06:47:24;;;;;;;50.90;21.33;;;;;;;7.14;100.00;101068.44;6249858;22;20028;-76
2022/12/21 06:49:50;;;;;;;50.10;21.60;;;;;;;7.15;100.00;101051.38;6249912;22;20434;-76
2022/12/21 06:52:20;;;;;;;65.70;23.73;;;;;;;7.16;100.00;101068.78;6249407;22;20026;-76
2022/12/21 06:54:46;;;;;;;57.45;23.38;;;;;;;7.16;100.00;101066.88;6249357;22;20016;-76
2022/12/21 06:57:13;;;;;;;64.57;24.85;;;;;;;7.17;100.00;101059.66;6223225;22;20028;-76
2022/12/21 06:59:39;;;;;;;60.47;25.67;;;;;;;7.17;100.00;101057.78;6248676;22;20457;-76
2022/12/21 07:02:09;;;;;;;55.33;25.98;;;;;;;7.18;100.00;101061.91;6248160;22;20921;-76
2022/12/21 07:04:36;;;;;;;68.13;26.13;;;;;;;7.19;100.00;101075.91;6248303;22;20016;-76
2022/12/21 07:07:02;;;;;;;55.33;25.88;;;;;;;7.18;100.00;101080.44;6220406;22;20021;-76
2022/12/21 07:09:29;;;;;;;73.32;27.42;;;;;;;7.19;100.00;101073.25;6221584;22;20012;-76
2022/12/21 07:11:55;;;;;;;67.63;29.75;;;;;;;7.18;100.00;101072.50;6250254;22;20025;-77
2022/12/21 07:14:21;;;;;;;63.67;27.65;;;;;;;7.20;100.00;101072.06;6223808;22;20485;-77
2022/12/21 07:16:48;;;;;;;57.70;26.77;;;;;;;7.20;100.00;101074.72;6223895;22;20020;-76
2022/12/21 07:19:15;;;;;;;56.47;26.55;;;;;;;7.18;100.00;101075.16;6223543;22;20099;-77
2022/12/21 07:21:41;;;;;;;64.60;27.67;;;;;;;7.18;100.00;101085.75;6223766;22;20021;-78
2022/12/21 07:24:09;;;;;;;59.67;27.20;;;;;;;7.18;100.00;101077.78;6250314;22;20017;-78
2022/12/21 07:26:35;;;;;;;62.97;26.90;;;;;;;7.19;100.00;101078.53;6250820;22;20044;-77
2022/12/21 07:29:02;;;;;;;62.83;28.27;;;;;;;7.19;100.00;101081.19;6250334;22;20017;-77
2022/12/21 07:31:29;;;;;;;67.93;27.92;;;;;;;7.20;100.00;101083.41;6223750;22;20032;-77
2022/12/21 07:33:55;;;;;;;59.08;26.90;;;;;;;7.21;100.00;101089.44;6250252;22;20017;-77
2022/12/21 07:36:22;;;;;;;60.40;26.95;;;;;;;7.18;100.00;101088.38;6250908;22;20414;-77
2022/12/21 07:38:49;;;;;;;65.50;27.42;;;;;;;7.22;100.00;101093.59;6249929;22;20017;-76
2022/12/21 07:41:16;;;;;;;59.28;28.23;;;;;;;7.21;100.00;101100.03;6250562;22;20021;-78
2022/12/21 07:43:44;;;;;;;67.50;27.63;;;;;;;7.20;100.00;101107.25;6250182;22;20013;-77
2022/12/21 07:46:29;;;;;;;62.88;26.33;;;;;;;7.19;100.00;101116.38;6250860;22;20028;-77
2022/12/21 07:48:57;;;;;;;51.97;26.10;;;;;;;7.18;100.00;101112.22;6222816;22;20067;-76
2022/12/21 07:51:24;;;;;;;59.72;27.27;;;;;;;7.18;100.00;101111.47;6250741;22;20024;-75
2022/12/21 07:53:51;;;;;;;60.60;27.73;;;;;;;7.16;100.00;101109.22;6249547;22;20021;-77
2022/12/21 07:56:18;;;;;;;63.85;27.48;;;;;;;7.15;100.00;101126.28;6250365;22;20472;-78
2022/12/21 07:58:45;;;;;;;59.58;27.77;;;;;;;7.15;100.00;101120.22;6250223;22;20012;-77
2022/12/21 08:01:14;;;;;;;61.58;27.42;;;;;;;7.15;100.00;101120.97;6250468;22;20562;-80
2022/12/21 08:03:42;;;;;;;62.20;27.55;;;;;;;7.15;100.00;101112.28;6250040;22;20017;-77
2022/12/21 08:06:09;;;;;;;59.95;28.15;;;;;;;7.15;100.00;101117.56;6249251;22;20501;-77
2022/12/21 08:08:37;;;;;;;51.97;27.27;;;;;;;7.15;100.00;101104.34;6249617;22;20024;-77
2022/12/21 08:11:04;;;;;;;61.65;26.73;;;;;;;7.13;100.00;101110.03;6249855;22;20148;-76
2022/12/21 08:13:31;;;;;;;57.47;28.52;;;;;;;7.14;100.00;101114.19;6250057;22;20521;-76
2022/12/21 08:16:05;;;;;;;57.38;27.75;;;;;;;7.14;100.00;101116.09;6249689;22;20017;-77
2022/12/21 08:18:32;;;;;;;52.42;26.27;;;;;;;7.13;100.00;101110.03;6250281;22;20067;-76
2022/12/21 08:20:59;;;;;;;51.10;27.45;;;;;;;7.12;100.00;101115.75;6224028;22;20021;-78
2022/12/21 08:23:25;;;;;;;60.00;27.48;;;;;;;7.12;100.00;101105.16;6224346;22;20017;-75
2022/12/21 08:25:52;;;;;;;57.40;26.40;;;;;;;7.11;100.00;101115.00;6251067;22;20024;-76
2022/12/21 08:28:19;;;;;;;49.47;25.90;;;;;;;7.10;100.00;101110.09;6251271;22;20023;-78
2022/12/21 08:30:45;;;;;;;56.25;27.15;;;;;;;7.07;100.00;101114.31;6251131;22;20549;-76
2022/12/21 08:33:13;;;;;;;54.42;26.40;;;;;;;7.06;100.00;101110.16;6251420;22;20396;-76
2022/12/21 08:35:42;;;;;;;59.53;27.27;;;;;;;7.06;100.00;101112.06;6223547;22;20020;-76
2022/12/21 08:38:08;;;;;;;53.53;26.27;;;;;;;7.05;100.00;101106.03;6250695;22;20048;-77
2022/12/21 08:40:36;;;;;;;59.15;26.20;;;;;;;7.07;100.00;101108.25;6251013;22;20039;-76
2022/12/21 08:43:02;;;;;;;46.00;25.38;;;;;;;7.05;100.00;101111.31;6251045;22;20071;-76
2022/12/21 08:45:29;;;;;;;50.80;26.05;;;;;;;7.07;100.00;101116.94;6251582;22;20013;-77
2022/12/21 08:47:55;;;;;;;50.17;24.33;;;;;;;7.10;100.00;101118.03;6223692;22;20020;-76
2022/12/21 08:50:22;;;;;;;55.40;25.65;;;;;;;7.10;100.00;101116.16;6251515;22;20044;-76
2022/12/21 08:52:48;;;;;;;56.17;24.50;;;;;;;7.12;100.00;101119.13;6250610;22;20019;-76
2022/12/21 08:55:15;;;;;;;50.47;24.13;;;;;;;7.13;100.00;101119.88;6251527;22;20021;-76
2022/12/21 08:57:41;;;;;;;58.80;26.20;;;;;;;7.13;100.00;101120.63;6250849;22;20417;-77
2022/12/21 09:00:09;;;;;;;51.08;24.63;;;;;;;7.13;100.00;101127.81;6251569;22;20044;-78
2022/12/21 09:02:37;;;;;;;47.90;24.17;;;;;;;7.13;100.00;101117.22;6251437;22;20450;-77
2022/12/21 09:05:05;;;;;;;53.45;25.90;;;;;;;7.14;100.00;101130.06;6251210;22;20013;-77
2022/12/21 09:07:31;;;;;;;51.20;25.00;;;;;;;7.17;100.00;101120.56;6250464;22;20016;-76
2022/12/21 09:09:58;;;;;;;52.63;25.25;;;;;;;7.17;100.00;101128.50;6250783;22;20425;-77
2022/12/21 09:12:26;;;;;;;47.17;25.52;;;;;;;7.19;100.00;101126.22;6251447;22;20013;-77
2022/12/21 09:14:52;;;;;;;51.08;26.02;;;;;;;7.20;100.00;101109.88;6251015;22;20016;-77
2022/12/21 09:17:19;;;;;;;41.97;24.02;;;;;;;7.19;100.00;101111.06;6251304;22;20448;-76
2022/12/21 09:19:54;;;;;;;44.55;24.88;;;;;;;7.22;100.00;101122.72;6250463;22;20079;-76
2022/12/21 09:22:20;;;;;;;45.50;25.05;;;;;;;7.24;100.00;101107.19;6251206;22;20044;-76
2022/12/21 09:24:47;;;;;;;43.33;25.58;;;;;;;7.22;100.00;101107.56;6223512;22;20043;-76
2022/12/21 09:27:13;;;;;;;49.45;25.67;;;;;;;7.20;100.00;101101.94;6251191;22;20020;-76
2022/12/21 09:29:40;;;;;;;47.78;24.55;;;;;;;7.24;100.00;101104.53;6251139;22;20017;-76
2022/12/21 09:32:06;;;;;;;50.70;25.27;;;;;;;7.24;100.00;101113.22;6250928;22;20019;-76
2022/12/21 09:34:33;;;;;;;48.72;24.55;;;;;;;7.23;100.00;101109.06;6250751;22;20047;-76
2022/12/21 09:36:59;;;;;;;41.88;24.67;;;;;;;7.20;100.00;101112.53;6250464;22;20013;-76
2022/12/21 09:39:46;;;;;;;46.20;25.95;;;;;;;7.20;100.00;101117.09;6228125;22;20079;-77
2022/12/21 09:42:34;;;;;;;43.53;24.08;;;;;;;7.22;100.00;101112.88;6251371;22;20457;-76
2022/12/21 09:45:17;;;;;;;39.63;22.33;;;;;;;7.24;100.00;101099.97;6250748;22;20067;-76
2022/12/21 09:47:53;;;;;;;41.33;23.38;;;;;;;7.24;100.00;101107.19;6250443;22;20024;-76
2022/12/21 09:50:30;;;;;;;39.65;22.60;;;;;;;7.24;100.00;101109.81;6250715;22;20094;-77
2022/12/21 09:53:11;;;;;;;43.80;23.13;;;;;;;7.22;100.00;101106.84;6224063;22;20071;-76
2022/12/21 09:55:46;;;;;;;41.70;22.45;;;;;;;7.22;100.00;101114.78;6251194;22;20020;-76
2022/12/21 09:58:17;;;;;;;40.38;22.08;;;;;;;7.23;100.00;101110.97;6251208;22;20023;-76
2022/12/21 10:00:47;;;;;;;42.37;22.73;;;;;;;7.26;100.00;101108.25;6250765;22;20032;-76
2022/12/21 10:03:43;;;;;;;43.38;22.80;;;;;;;7.33;100.00;101094.88;6249989;22;20399;-78
2022/12/21 10:06:27;;;;;;;42.70;22.77;;;;;;;7.42;100.00;101093.59;6204226;22;20021;-77
2022/12/21 10:09:29;;;;;;;40.15;22.83;;;;;;;7.47;100.00;101090.47;6250160;22;20134;-76
2022/12/21 10:12:20;;;;;;;45.47;22.58;;;;;;;7.54;100.00;101095.63;6223903;22;20021;-76
2022/12/21 10:14:57;;;;;;;45.22;23.33;;;;;;;7.58;100.00;101093.66;6250624;22;20023;-77
2022/12/21 10:17:23;;;;;;;39.53;23.13;;;;;;;7.63;100.00;101085.97;6250967;22;20091;-77
2022/12/21 10:20:10;;;;;;;38.90;20.15;;;;;;;7.66;100.00;101089.69;6250250;22;20528;-77
2022/12/21 10:22:47;;;;;;;32.78;20.75;;;;;;;7.66;100.00;101082.50;6250914;22;20023;-77
2022/12/21 10:25:21;;;;;;;33.47;20.50;;;;;;;7.69;100.00;101083.56;6251033;22;20013;-76
2022/12/21 10:27:55;;;;;;;37.20;19.95;;;;;;;7.73;100.00;101086.91;6250519;22;20028;-77
2022/12/21 10:30:24;;;;;;;37.78;19.40;;;;;;;7.76;100.00;101087.97;6251036;22;20013;-77
2022/12/21 10:32:51;;;;;;;37.15;18.67;;;;;;;7.78;100.00;101080.38;6250730;22;20080;-78
2022/12/21 10:35:21;;;;;;;35.15;18.75;;;;;;;7.81;100.00;101084.84;6251513;22;20099;-76
2022/12/21 10:37:54;;;;;;;32.58;16.98;;;;;;;7.73;100.00;101089.56;6250510;22;20016;-77
2022/12/21 10:40:25;;;;;;;35.03;16.33;;;;;;;7.67;100.00;101086.63;6250095;22;20064;-76
2022/12/21 10:42:53;;;;;;;38.30;16.97;;;;;;;7.60;100.00;101078.81;6249569;22;20020;-76
2022/12/21 10:45:22;;;;;;;33.13;15.70;;;;;;;7.61;100.00;101082.97;6250260;22;20142;-76
2022/12/21 10:47:53;;;;;;;26.92;15.70;;;;;;;7.62;100.00;101078.41;6249986;22;20017;-78
2022/12/21 10:50:32;;;;;;;24.77;15.05;;;;;;;7.59;100.00;101077.38;6250614;22;20024;-77
2022/12/21 10:53:15;;;;;;;25.67;14.75;;;;;;;7.56;100.00;101090.69;6247904;22;20473;-77
2022/12/21 10:55:43;;;;;;;24.90;15.07;;;;;;;7.53;100.00;101086.19;6248128;22;20013;-77
2022/12/21 10:58:10;;;;;;;32.33;14.50;;;;;;;7.53;100.00;101086.94;6248599;22;20421;-77
2022/12/21 11:00:39;;;;;;;34.78;15.73;;;;;;;7.53;100.00;101089.59;6248540;22;20446;-78
2022/12/21 11:03:25;;;;;;;32.28;15.95;;;;;;;7.51;100.00;101081.31;6247780;22;20474;-75
2022/12/21 11:05:52;;;;;;;30.65;16.40;;;;;;;7.46;100.00;101073.09;6247915;22;20075;-75
2022/12/21 11:08:28;;;;;;;29.42;15.25;;;;;;;7.45;100.00;101080.28;6223962;22;20021;-78
2022/12/21 11:11:01;;;;;;;28.70;16.63;;;;;;;7.45;100.00;101075.00;6250120;22;20020;-77
2022/12/21 11:13:32;;;;;;;34.63;15.18;;;;;;;7.48;100.00;101078.72;6223405;22;20068;-76
2022/12/21 11:16:09;;;;;;;29.77;15.57;;;;;;;7.50;100.00;101066.56;6249910;22;20079;-79
2022/12/21 11:18:47;;;;;;;36.65;16.77;;;;;;;7.50;100.00;101066.56;6250662;22;20012;-79
2022/12/21 11:21:24;;;;;;;28.25;15.75;;;;;;;7.49;100.00;101070.38;6250110;22;20023;-78
2022/12/21 11:23:54;;;;;;;33.47;19.58;;;;;;;7.47;100.00;101085.94;6250482;22;20028;-77
2022/12/21 11:26:26;;;;;;;52.75;20.85;;;;;;;7.46;100.00;101087.09;6250654;22;20144;-75
2022/12/21 11:29:06;;;;;;;36.33;20.23;;;;;;;7.46;100.00;101081.78;6250255;22;20020;-76
2022/12/21 11:31:35;;;;;;;37.95;20.92;;;;;;;7.46;100.00;101084.44;6250066;22;20023;-78
2022/12/21 11:34:20;;;;;;;39.25;21.13;;;;;;;7.48;100.00;101079.47;6223465;22;20094;-78
2022/12/21 11:37:00;;;;;;;41.22;21.10;;;;;;;7.49;100.00;101078.31;6251301;22;20020;-80
2022/12/21 11:39:43;;;;;;;37.55;22.98;;;;;;;7.52;100.00;101087.34;6250148;22;20036;-76
2022/12/21 11:42:21;;;;;;;42.90;23.23;;;;;;;7.46;100.00;101081.78;6223359;22;20083;-77
2022/12/21 11:44:51;;;;;;;41.58;22.60;;;;;;;7.49;100.00;101083.63;6249659;22;20436;-79
2022/12/21 11:47:39;;;;;;;43.10;22.05;;;;;;;7.51;100.00;101078.66;6223658;22;20452;-80